sensor_id;sensor_type;location;lat;lon;timestamp;temperature;humidity
67192;HTU21D;54120;53.504;49.426;2023-03-24T00:01:42;3.36;90.21
67192;HTU21D;54120;53.504;49.426;2023-03-24T00:04:09;3.40;90.34
67192;HTU21D;54120;53.504;49.426;2023-03-24T00:06:35;3.33;89.88
67192;HTU21D;54120;53.504;49.426;2023-03-24T00:09:02;3.34;90.24
67192;HTU21D;54120;53.504;49.426;2023-03-24T00:11:29;3.24;89.64
67192;HTU21D;54120;53.504;49.426;2023-03-24T00:14:03;3.17;90.28
67192;HTU21D;54120;53.504;49.426;2023-03-24T00:16:30;3.15;91.08
67192;HTU21D;54120;53.504;49.426;2023-03-24T00:19:00;3.12;91.34
67192;HTU21D;54120;53.504;49.426;2023-03-24T00:21:26;3.02;91.29
67192;HTU21D;54120;53.504;49.426;2023-03-24T00:23:53;2.93;90.60
67192;HTU21D;54120;53.504;49.426;2023-03-24T00:26:21;2.87;90.73
67192;HTU21D;54120;53.504;49.426;2023-03-24T00:28:50;2.79;90.37
67192;HTU21D;54120;53.504;49.426;2023-03-24T00:31:17;2.73;91.04
67192;HTU21D;54120;53.504;49.426;2023-03-24T00:33:45;2.70;91.48
67192;HTU21D;54120;53.504;49.426;2023-03-24T00:36:17;2.59;90.79
67192;HTU21D;54120;53.504;49.426;2023-03-24T00:38:45;2.44;90.50
67192;HTU21D;54120;53.504;49.426;2023-03-24T00:41:13;2.52;92.01
67192;HTU21D;54120;53.504;49.426;2023-03-24T00:43:42;2.59;91.84
67192;HTU21D;54120;53.504;49.426;2023-03-24T00:46:11;2.49;91.31
67192;HTU21D;54120;53.504;49.426;2023-03-24T00:48:38;2.42;92.62
67192;HTU21D;54120;53.504;49.426;2023-03-24T00:51:07;2.55;93.53
67192;HTU21D;54120;53.504;49.426;2023-03-24T00:53:36;2.68;93.19
67192;HTU21D;54120;53.504;49.426;2023-03-24T00:56:03;2.71;92.80
67192;HTU21D;54120;53.504;49.426;2023-03-24T00:58:29;2.73;93.11
67192;HTU21D;54120;53.504;49.426;2023-03-24T01:00:59;2.81;92.92
67192;HTU21D;54120;53.504;49.426;2023-03-24T01:03:25;2.86;93.03
67192;HTU21D;54120;53.504;49.426;2023-03-24T01:06:00;2.81;92.64
67192;HTU21D;54120;53.504;49.426;2023-03-24T01:10:58;2.96;92.92
67192;HTU21D;54120;53.504;49.426;2023-03-24T01:13:28;3.06;92.50
67192;HTU21D;54120;53.504;49.426;2023-03-24T01:15:54;3.31;92.07
67192;HTU21D;54120;53.504;49.426;2023-03-24T01:18:21;3.26;91.00
67192;HTU21D;54120;53.504;49.426;2023-03-24T01:20:51;3.34;90.97
67192;HTU21D;54120;53.504;49.426;2023-03-24T01:23:21;3.08;89.73
67192;HTU21D;54120;53.504;49.426;2023-03-24T01:25:49;2.97;90.47
67192;HTU21D;54120;53.504;49.426;2023-03-24T01:28:18;2.78;90.53
67192;HTU21D;54120;53.504;49.426;2023-03-24T01:30:46;2.68;91.82
67192;HTU21D;54120;53.504;49.426;2023-03-24T01:33:13;2.65;92.59
67192;HTU21D;54120;53.504;49.426;2023-03-24T01:35:39;2.54;92.34
67192;HTU21D;54120;53.504;49.426;2023-03-24T01:38:10;2.50;93.40
67192;HTU21D;54120;53.504;49.426;2023-03-24T01:40:40;2.38;93.37
67192;HTU21D;54120;53.504;49.426;2023-03-24T01:43:17;2.37;94.36
67192;HTU21D;54120;53.504;49.426;2023-03-24T01:45:54;2.38;94.72
67192;HTU21D;54120;53.504;49.426;2023-03-24T01:51:05;2.46;95.29
67192;HTU21D;54120;53.504;49.426;2023-03-24T01:53:37;2.56;95.29
67192;HTU21D;54120;53.504;49.426;2023-03-24T01:56:05;2.54;94.36
67192;HTU21D;54120;53.504;49.426;2023-03-24T01:58:33;2.64;95.03
67192;HTU21D;54120;53.504;49.426;2023-03-24T02:01:01;2.64;94.88
67192;HTU21D;54120;53.504;49.426;2023-03-24T02:03:29;2.68;94.98
67192;HTU21D;54120;53.504;49.426;2023-03-24T02:08:55;2.74;94.95
67192;HTU21D;54120;53.504;49.426;2023-03-24T02:11:24;2.73;94.69
67192;HTU21D;54120;53.504;49.426;2023-03-24T02:13:52;2.71;94.53
67192;HTU21D;54120;53.504;49.426;2023-03-24T02:19:09;2.73;94.65
67192;HTU21D;54120;53.504;49.426;2023-03-24T02:27:52;2.80;94.78
67192;HTU21D;54120;53.504;49.426;2023-03-24T02:41:31;2.89;94.85
67192;HTU21D;54120;53.504;49.426;2023-03-24T02:44:14;2.96;94.84
67192;HTU21D;54120;53.504;49.426;2023-03-24T02:46:55;3.02;94.58
67192;HTU21D;54120;53.504;49.426;2023-03-24T02:52:38;3.25;93.44
67192;HTU21D;54120;53.504;49.426;2023-03-24T02:55:27;3.29;91.96
67192;HTU21D;54120;53.504;49.426;2023-03-24T02:58:01;3.32;91.73
67192;HTU21D;54120;53.504;49.426;2023-03-24T03:00:34;3.28;91.15
67192;HTU21D;54120;53.504;49.426;2023-03-24T03:03:06;3.29;90.89
67192;HTU21D;54120;53.504;49.426;2023-03-24T03:05:41;3.29;90.66
67192;HTU21D;54120;53.504;49.426;2023-03-24T03:08:12;3.43;90.95
67192;HTU21D;54120;53.504;49.426;2023-03-24T03:10:45;3.83;90.65
67192;HTU21D;54120;53.504;49.426;2023-03-24T03:13:17;5.94;84.17
67192;HTU21D;54120;53.504;49.426;2023-03-24T03:15:49;7.87;71.89
67192;HTU21D;54120;53.504;49.426;2023-03-24T03:18:26;9.31;65.42
67192;HTU21D;54120;53.504;49.426;2023-03-24T03:20:58;10.24;61.47
67192;HTU21D;54120;53.504;49.426;2023-03-24T03:23:54;11.33;57.80
67192;HTU21D;54120;53.504;49.426;2023-03-24T03:26:24;12.33;53.80
67192;HTU21D;54120;53.504;49.426;2023-03-24T03:29:00;12.63;52.40
67192;HTU21D;54120;53.504;49.426;2023-03-24T03:31:40;12.99;51.39
67192;HTU21D;54120;53.504;49.426;2023-03-24T03:34:19;13.45;50.05
67192;HTU21D;54120;53.504;49.426;2023-03-24T03:37:56;13.61;49.48
67192;HTU21D;54120;53.504;49.426;2023-03-24T03:40:00;14.65;47.28
67192;HTU21D;54120;53.504;49.426;2023-03-24T03:42:27;15.24;45.07
67192;HTU21D;54120;53.504;49.426;2023-03-24T03:44:54;15.19;44.80
67192;HTU21D;54120;53.504;49.426;2023-03-24T03:47:20;15.82;43.29
67192;HTU21D;54120;53.504;49.426;2023-03-24T03:49:48;16.16;42.92
67192;HTU21D;54120;53.504;49.426;2023-03-24T03:52:15;16.85;40.77
67192;HTU21D;54120;53.504;49.426;2023-03-24T03:54:42;17.24;39.39
67192;HTU21D;54120;53.504;49.426;2023-03-24T03:57:12;17.81;38.22
67192;HTU21D;54120;53.504;49.426;2023-03-24T03:59:39;18.33;37.10
67192;HTU21D;54120;53.504;49.426;2023-03-24T04:08:18;19.42;34.53
67192;HTU21D;54120;53.504;49.426;2023-03-24T04:24:55;20.50;31.96
67192;HTU21D;54120;53.504;49.426;2023-03-24T04:30:30;21.78;29.91
67192;HTU21D;54120;53.504;49.426;2023-03-24T04:33:05;21.67;29.87
67192;HTU21D;54120;53.504;49.426;2023-03-24T04:35:41;21.81;29.45
67192;HTU21D;54120;53.504;49.426;2023-03-24T04:38:13;21.99;29.45
67192;HTU21D;54120;53.504;49.426;2023-03-24T04:40:45;22.22;28.89
67192;HTU21D;54120;53.504;49.426;2023-03-24T04:43:16;22.53;28.02
67192;HTU21D;54120;53.504;49.426;2023-03-24T04:45:44;22.11;29.68
67192;HTU21D;54120;53.504;49.426;2023-03-24T04:48:16;21.91;29.84
67192;HTU21D;54120;53.504;49.426;2023-03-24T04:50:58;21.69;29.87
67192;HTU21D;54120;53.504;49.426;2023-03-24T04:53:26;22.10;29.46
67192;HTU21D;54120;53.504;49.426;2023-03-24T04:58:28;22.52;28.32
67192;HTU21D;54120;53.504;49.426;2023-03-24T05:00:54;22.53;28.25
67192;HTU21D;54120;53.504;49.426;2023-03-24T05:03:21;23.34;26.81
67192;HTU21D;54120;53.504;49.426;2023-03-24T05:05:49;23.88;25.66
67192;HTU21D;54120;53.504;49.426;2023-03-24T05:08:16;23.40;26.11
67192;HTU21D;54120;53.504;49.426;2023-03-24T05:10:44;23.21;26.59
67192;HTU21D;54120;53.504;49.426;2023-03-24T05:13:11;23.39;26.34
67192;HTU21D;54120;53.504;49.426;2023-03-24T05:15:37;24.08;25.25
67192;HTU21D;54120;53.504;49.426;2023-03-24T05:18:04;23.87;25.94
67192;HTU21D;54120;53.504;49.426;2023-03-24T05:20:31;23.36;26.38
67192;HTU21D;54120;53.504;49.426;2023-03-24T05:22:57;24.11;25.36
67192;HTU21D;54120;53.504;49.426;2023-03-24T05:25:24;24.86;24.19
67192;HTU21D;54120;53.504;49.426;2023-03-24T05:27:50;25.40;23.54
67192;HTU21D;54120;53.504;49.426;2023-03-24T05:30:16;25.20;23.68
67192;HTU21D;54120;53.504;49.426;2023-03-24T05:32:45;24.42;24.27
67192;HTU21D;54120;53.504;49.426;2023-03-24T05:35:11;23.77;26.03
67192;HTU21D;54120;53.504;49.426;2023-03-24T05:37:37;23.52;26.45
67192;HTU21D;54120;53.504;49.426;2023-03-24T05:40:04;23.85;25.57
67192;HTU21D;54120;53.504;49.426;2023-03-24T05:42:31;23.79;25.76
67192;HTU21D;54120;53.504;49.426;2023-03-24T05:44:58;24.43;24.82
67192;HTU21D;54120;53.504;49.426;2023-03-24T05:47:24;24.74;23.76
67192;HTU21D;54120;53.504;49.426;2023-03-24T05:49:50;24.14;24.78
67192;HTU21D;54120;53.504;49.426;2023-03-24T05:52:17;23.87;25.48
67192;HTU21D;54120;53.504;49.426;2023-03-24T05:54:45;24.09;25.44
67192;HTU21D;54120;53.504;49.426;2023-03-24T05:57:14;24.01;25.23
67192;HTU21D;54120;53.504;49.426;2023-03-24T05:59:41;23.81;25.91
67192;HTU21D;54120;53.504;49.426;2023-03-24T06:02:07;23.05;27.74
67192;HTU21D;54120;53.504;49.426;2023-03-24T06:04:34;24.19;25.50
67192;HTU21D;54120;53.504;49.426;2023-03-24T06:07:00;23.11;27.39
67192;HTU21D;54120;53.504;49.426;2023-03-24T06:09:29;21.90;28.96
67192;HTU21D;54120;53.504;49.426;2023-03-24T06:12:02;22.35;28.96
67192;HTU21D;54120;53.504;49.426;2023-03-24T06:14:29;22.24;29.37
67192;HTU21D;54120;53.504;49.426;2023-03-24T06:16:55;22.37;28.62
67192;HTU21D;54120;53.504;49.426;2023-03-24T06:19:25;22.41;28.51
67192;HTU21D;54120;53.504;49.426;2023-03-24T06:21:52;22.18;28.74
67192;HTU21D;54120;53.504;49.426;2023-03-24T06:24:19;21.69;30.03
67192;HTU21D;54120;53.504;49.426;2023-03-24T06:26:46;22.56;28.71
67192;HTU21D;54120;53.504;49.426;2023-03-24T06:29:15;22.51;28.07
67192;HTU21D;54120;53.504;49.426;2023-03-24T06:31:47;21.64;30.36
67192;HTU21D;54120;53.504;49.426;2023-03-24T06:34:13;21.62;29.96
67192;HTU21D;54120;53.504;49.426;2023-03-24T06:36:40;21.81;29.51
67192;HTU21D;54120;53.504;49.426;2023-03-24T06:39:06;22.46;28.15
67192;HTU21D;54120;53.504;49.426;2023-03-24T06:41:33;22.82;28.20
67192;HTU21D;54120;53.504;49.426;2023-03-24T06:43:59;21.81;29.08
67192;HTU21D;54120;53.504;49.426;2023-03-24T06:46:26;20.34;32.37
67192;HTU21D;54120;53.504;49.426;2023-03-24T06:48:52;20.53;33.08
67192;HTU21D;54120;53.504;49.426;2023-03-24T06:51:19;20.99;31.82
67192;HTU21D;54120;53.504;49.426;2023-03-24T06:53:45;21.39;30.74
67192;HTU21D;54120;53.504;49.426;2023-03-24T06:56:12;21.42;30.22
67192;HTU21D;54120;53.504;49.426;2023-03-24T06:58:43;21.45;30.50
67192;HTU21D;54120;53.504;49.426;2023-03-24T07:01:10;22.16;28.93
67192;HTU21D;54120;53.504;49.426;2023-03-24T07:03:38;21.87;30.00
67192;HTU21D;54120;53.504;49.426;2023-03-24T07:06:04;22.22;28.42
67192;HTU21D;54120;53.504;49.426;2023-03-24T07:08:32;22.14;28.90
67192;HTU21D;54120;53.504;49.426;2023-03-24T07:10:59;21.75;29.71
67192;HTU21D;54120;53.504;49.426;2023-03-24T07:13:25;21.43;29.87
67192;HTU21D;54120;53.504;49.426;2023-03-24T07:15:51;22.03;28.74
67192;HTU21D;54120;53.504;49.426;2023-03-24T07:18:17;21.09;30.83
67192;HTU21D;54120;53.504;49.426;2023-03-24T07:20:45;21.36;30.07
67192;HTU21D;54120;53.504;49.426;2023-03-24T07:23:12;21.53;29.92
67192;HTU21D;54120;53.504;49.426;2023-03-24T07:25:41;20.90;31.09
67192;HTU21D;54120;53.504;49.426;2023-03-24T07:28:08;21.23;31.06
67192;HTU21D;54120;53.504;49.426;2023-03-24T07:30:34;21.95;29.61
67192;HTU21D;54120;53.504;49.426;2023-03-24T07:33:02;20.80;32.09
67192;HTU21D;54120;53.504;49.426;2023-03-24T07:35:29;21.11;30.87
67192;HTU21D;54120;53.504;49.426;2023-03-24T07:37:59;22.22;29.56
67192;HTU21D;54120;53.504;49.426;2023-03-24T07:40:26;21.78;29.58
67192;HTU21D;54120;53.504;49.426;2023-03-24T07:42:53;20.20;33.67
67192;HTU21D;54120;53.504;49.426;2023-03-24T07:45:19;19.50;34.88
67192;HTU21D;54120;53.504;49.426;2023-03-24T07:47:46;16.72;41.40
67192;HTU21D;54120;53.504;49.426;2023-03-24T07:50:13;14.86;46.67
67192;HTU21D;54120;53.504;49.426;2023-03-24T07:52:41;14.09;49.10
67192;HTU21D;54120;53.504;49.426;2023-03-24T07:55:10;13.90;50.03
67192;HTU21D;54120;53.504;49.426;2023-03-24T07:57:39;14.10;50.02
67192;HTU21D;54120;53.504;49.426;2023-03-24T08:00:08;14.01;50.27
67192;HTU21D;54120;53.504;49.426;2023-03-24T08:02:44;13.79;50.72
67192;HTU21D;54120;53.504;49.426;2023-03-24T08:05:11;13.74;51.72
67192;HTU21D;54120;53.504;49.426;2023-03-24T08:07:40;13.43;52.22
67192;HTU21D;54120;53.504;49.426;2023-03-24T08:10:12;13.17;54.08
67192;HTU21D;54120;53.504;49.426;2023-03-24T08:12:39;13.48;53.31
67192;HTU21D;54120;53.504;49.426;2023-03-24T08:15:08;13.79;51.93
67192;HTU21D;54120;53.504;49.426;2023-03-24T08:17:35;13.80;51.73
67192;HTU21D;54120;53.504;49.426;2023-03-24T08:20:02;13.48;52.83
67192;HTU21D;54120;53.504;49.426;2023-03-24T08:22:39;13.23;54.09
67192;HTU21D;54120;53.504;49.426;2023-03-24T08:25:05;13.40;53.31
67192;HTU21D;54120;53.504;49.426;2023-03-24T08:27:32;13.56;52.94
67192;HTU21D;54120;53.504;49.426;2023-03-24T08:29:58;13.44;53.88
67192;HTU21D;54120;53.504;49.426;2023-03-24T08:32:24;13.29;53.58
67192;HTU21D;54120;53.504;49.426;2023-03-24T08:34:51;13.22;54.31
67192;HTU21D;54120;53.504;49.426;2023-03-24T08:37:17;13.41;53.50
67192;HTU21D;54120;53.504;49.426;2023-03-24T08:39:43;13.37;53.82
67192;HTU21D;54120;53.504;49.426;2023-03-24T08:42:09;13.39;54.05
67192;HTU21D;54120;53.504;49.426;2023-03-24T08:44:36;13.38;53.42
67192;HTU21D;54120;53.504;49.426;2023-03-24T08:47:02;13.32;54.68
67192;HTU21D;54120;53.504;49.426;2023-03-24T08:49:28;13.71;52.96
67192;HTU21D;54120;53.504;49.426;2023-03-24T08:51:55;13.83;53.18
67192;HTU21D;54120;53.504;49.426;2023-03-24T08:54:21;13.67;52.77
67192;HTU21D;54120;53.504;49.426;2023-03-24T08:56:49;13.79;53.56
67192;HTU21D;54120;53.504;49.426;2023-03-24T08:59:15;14.00;52.54
67192;HTU21D;54120;53.504;49.426;2023-03-24T09:01:42;13.60;53.07
67192;HTU21D;54120;53.504;49.426;2023-03-24T09:04:08;13.47;54.10
67192;HTU21D;54120;53.504;49.426;2023-03-24T09:06:34;13.74;53.04
67192;HTU21D;54120;53.504;49.426;2023-03-24T09:09:00;13.81;53.02
67192;HTU21D;54120;53.504;49.426;2023-03-24T09:11:27;13.73;53.10
67192;HTU21D;54120;53.504;49.426;2023-03-24T09:13:53;13.67;53.18
67192;HTU21D;54120;53.504;49.426;2023-03-24T09:16:19;13.92;52.56
67192;HTU21D;54120;53.504;49.426;2023-03-24T09:18:48;14.00;52.61
67192;HTU21D;54120;53.504;49.426;2023-03-24T09:21:15;13.90;52.81
67192;HTU21D;54120;53.504;49.426;2023-03-24T09:23:42;13.86;53.65
67192;HTU21D;54120;53.504;49.426;2023-03-24T09:26:08;13.88;52.29
67192;HTU21D;54120;53.504;49.426;2023-03-24T09:28:34;13.75;53.52
67192;HTU21D;54120;53.504;49.426;2023-03-24T09:31:03;13.76;53.02
67192;HTU21D;54120;53.504;49.426;2023-03-24T09:33:29;13.89;53.93
67192;HTU21D;54120;53.504;49.426;2023-03-24T09:35:57;13.79;53.59
67192;HTU21D;54120;53.504;49.426;2023-03-24T09:38:24;13.88;53.57
67192;HTU21D;54120;53.504;49.426;2023-03-24T09:40:54;13.93;53.45
67192;HTU21D;54120;53.504;49.426;2023-03-24T09:43:36;13.94;53.14
67192;HTU21D;54120;53.504;49.426;2023-03-24T09:46:11;14.00;52.72
67192;HTU21D;54120;53.504;49.426;2023-03-24T09:48:40;13.99;53.10
67192;HTU21D;54120;53.504;49.426;2023-03-24T09:51:13;14.25;52.36
67192;HTU21D;54120;53.504;49.426;2023-03-24T09:56:26;14.44;52.77
67192;HTU21D;54120;53.504;49.426;2023-03-24T09:59:45;14.47;53.01
67192;HTU21D;54120;53.504;49.426;2023-03-24T10:01:53;14.58;52.35
67192;HTU21D;54120;53.504;49.426;2023-03-24T10:04:21;14.34;52.71
67192;HTU21D;54120;53.504;49.426;2023-03-24T10:06:55;14.22;53.18
67192;HTU21D;54120;53.504;49.426;2023-03-24T10:09:30;14.23;53.09
67192;HTU21D;54120;53.504;49.426;2023-03-24T10:12:23;14.14;54.13
67192;HTU21D;54120;53.504;49.426;2023-03-24T10:18:04;14.24;53.61
67192;HTU21D;54120;53.504;49.426;2023-03-24T10:23:35;14.27;53.59
67192;HTU21D;54120;53.504;49.426;2023-03-24T10:29:10;14.12;53.13
67192;HTU21D;54120;53.504;49.426;2023-03-24T10:31:39;14.17;53.43
67192;HTU21D;54120;53.504;49.426;2023-03-24T10:34:10;14.29;53.10
67192;HTU21D;54120;53.504;49.426;2023-03-24T10:36:38;14.38;53.02
67192;HTU21D;54120;53.504;49.426;2023-03-24T10:39:12;14.43;52.85
67192;HTU21D;54120;53.504;49.426;2023-03-24T10:41:40;14.51;52.38
67192;HTU21D;54120;53.504;49.426;2023-03-24T10:44:08;14.53;52.40
67192;HTU21D;54120;53.504;49.426;2023-03-24T10:46:37;14.58;51.95
67192;HTU21D;54120;53.504;49.426;2023-03-24T10:51:47;14.48;51.72
67192;HTU21D;54120;53.504;49.426;2023-03-24T10:54:20;14.43;51.66
67192;HTU21D;54120;53.504;49.426;2023-03-24T10:57:00;14.19;52.32
67192;HTU21D;54120;53.504;49.426;2023-03-24T10:59:35;14.12;52.57
67192;HTU21D;54120;53.504;49.426;2023-03-24T11:04:40;14.14;52.71
67192;HTU21D;54120;53.504;49.426;2023-03-24T11:07:17;14.15;52.46
67192;HTU21D;54120;53.504;49.426;2023-03-24T11:12:31;14.14;52.32
67192;HTU21D;54120;53.504;49.426;2023-03-24T11:15:13;14.26;52.32
67192;HTU21D;54120;53.504;49.426;2023-03-24T11:17:43;14.32;52.13
67192;HTU21D;54120;53.504;49.426;2023-03-24T11:20:39;14.12;52.85
67192;HTU21D;54120;53.504;49.426;2023-03-24T11:23:38;14.21;52.98
67192;HTU21D;54120;53.504;49.426;2023-03-24T11:26:21;14.22;52.34
67192;HTU21D;54120;53.504;49.426;2023-03-24T11:29:00;14.18;52.32
67192;HTU21D;54120;53.504;49.426;2023-03-24T11:31:31;14.21;52.30
67192;HTU21D;54120;53.504;49.426;2023-03-24T11:39:11;14.56;51.80
67192;HTU21D;54120;53.504;49.426;2023-03-24T11:41:41;14.51;51.88
67192;HTU21D;54120;53.504;49.426;2023-03-24T11:46:47;14.54;51.02
67192;HTU21D;54120;53.504;49.426;2023-03-24T11:49:18;14.44;51.33
67192;HTU21D;54120;53.504;49.426;2023-03-24T11:51:48;14.38;51.48
67192;HTU21D;54120;53.504;49.426;2023-03-24T11:54:17;14.30;51.15
67192;HTU21D;54120;53.504;49.426;2023-03-24T11:56:50;14.35;51.11
67192;HTU21D;54120;53.504;49.426;2023-03-24T12:05:20;14.36;50.04
67192;HTU21D;54120;53.504;49.426;2023-03-24T12:07:53;14.25;50.39
67192;HTU21D;54120;53.504;49.426;2023-03-24T12:10:39;14.27;49.91
67192;HTU21D;54120;53.504;49.426;2023-03-24T12:13:20;14.26;49.96
67192;HTU21D;54120;53.504;49.426;2023-03-24T12:15:55;14.32;50.04
67192;HTU21D;54120;53.504;49.426;2023-03-24T12:24:30;14.39;50.67
67192;HTU21D;54120;53.504;49.426;2023-03-24T12:27:00;14.43;50.54
67192;HTU21D;54120;53.504;49.426;2023-03-24T12:29:58;14.40;50.60
67192;HTU21D;54120;53.504;49.426;2023-03-24T12:35:36;14.34;50.95
67192;HTU21D;54120;53.504;49.426;2023-03-24T12:52:29;14.41;50.82
67192;HTU21D;54120;53.504;49.426;2023-03-24T12:55:06;14.33;51.30
67192;HTU21D;54120;53.504;49.426;2023-03-24T12:57:44;14.23;51.67
67192;HTU21D;54120;53.504;49.426;2023-03-24T13:00:38;14.20;51.93
67192;HTU21D;54120;53.504;49.426;2023-03-24T13:03:20;14.28;51.85
67192;HTU21D;54120;53.504;49.426;2023-03-24T13:05:53;14.17;52.25
67192;HTU21D;54120;53.504;49.426;2023-03-24T13:08:22;14.01;53.03
67192;HTU21D;54120;53.504;49.426;2023-03-24T13:11:06;14.00;53.60
67192;HTU21D;54120;53.504;49.426;2023-03-24T13:13:41;13.90;53.27
67192;HTU21D;54120;53.504;49.426;2023-03-24T13:18:45;13.91;53.59
67192;HTU21D;54120;53.504;49.426;2023-03-24T13:21:16;13.89;53.20
67192;HTU21D;54120;53.504;49.426;2023-03-24T13:24:01;13.77;53.42
67192;HTU21D;54120;53.504;49.426;2023-03-24T13:32:03;13.66;53.36
67192;HTU21D;54120;53.504;49.426;2023-03-24T13:34:40;13.62;53.36
67192;HTU21D;54120;53.504;49.426;2023-03-24T13:37:14;13.62;53.39
67192;HTU21D;54120;53.504;49.426;2023-03-24T13:39:43;13.55;53.27
67192;HTU21D;54120;53.504;49.426;2023-03-24T13:42:36;13.52;53.80
67192;HTU21D;54120;53.504;49.426;2023-03-24T13:51:43;13.32;54.24
67192;HTU21D;54120;53.504;49.426;2023-03-24T13:53:59;13.26;54.15
67192;HTU21D;54120;53.504;49.426;2023-03-24T13:59:04;13.14;54.42
67192;HTU21D;54120;53.504;49.426;2023-03-24T14:01:37;13.09;54.20
67192;HTU21D;54120;53.504;49.426;2023-03-24T14:10:28;12.88;55.54
67192;HTU21D;54120;53.504;49.426;2023-03-24T14:13:04;12.82;55.36
67192;HTU21D;54120;53.504;49.426;2023-03-24T14:15:54;12.77;55.82
67192;HTU21D;54120;53.504;49.426;2023-03-24T14:23:48;12.64;56.29
67192;HTU21D;54120;53.504;49.426;2023-03-24T14:36:31;12.28;57.61
67192;HTU21D;54120;53.504;49.426;2023-03-24T14:41:45;12.06;58.35
67192;HTU21D;54120;53.504;49.426;2023-03-24T14:47:16;11.87;59.26
67192;HTU21D;54120;53.504;49.426;2023-03-24T14:49:45;11.78;59.39
67192;HTU21D;54120;53.504;49.426;2023-03-24T14:54:49;11.62;59.52
67192;HTU21D;54120;53.504;49.426;2023-03-24T14:57:22;11.61;59.63
67192;HTU21D;54120;53.504;49.426;2023-03-24T15:02:34;11.52;59.77
67192;HTU21D;54120;53.504;49.426;2023-03-24T15:05:33;11.43;60.19
67192;HTU21D;54120;53.504;49.426;2023-03-24T15:08:19;11.37;60.31
67192;HTU21D;54120;53.504;49.426;2023-03-24T15:10:51;11.31;60.51
67192;HTU21D;54120;53.504;49.426;2023-03-24T15:18:48;11.08;61.46
67192;HTU21D;54120;53.504;49.426;2023-03-24T15:21:38;11.09;61.56
67192;HTU21D;54120;53.504;49.426;2023-03-24T15:26:53;11.07;61.73
67192;HTU21D;54120;53.504;49.426;2023-03-24T15:29:20;11.04;62.12
67192;HTU21D;54120;53.504;49.426;2023-03-24T15:31:48;10.98;62.16
67192;HTU21D;54120;53.504;49.426;2023-03-24T15:37:04;11.07;62.18
67192;HTU21D;54120;53.504;49.426;2023-03-24T15:39:38;11.05;62.37
67192;HTU21D;54120;53.504;49.426;2023-03-24T15:42:12;11.01;62.59
67192;HTU21D;54120;53.504;49.426;2023-03-24T15:44:40;10.94;62.73
67192;HTU21D;54120;53.504;49.426;2023-03-24T15:47:28;10.86;63.18
67192;HTU21D;54120;53.504;49.426;2023-03-24T15:49:57;10.86;63.20
67192;HTU21D;54120;53.504;49.426;2023-03-24T15:57:47;10.83;63.65
67192;HTU21D;54120;53.504;49.426;2023-03-24T16:00:18;10.81;63.90
67192;HTU21D;54120;53.504;49.426;2023-03-24T16:02:52;10.68;64.30
67192;HTU21D;54120;53.504;49.426;2023-03-24T16:05:30;10.66;64.50
67192;HTU21D;54120;53.504;49.426;2023-03-24T16:08:05;10.69;64.67
67192;HTU21D;54120;53.504;49.426;2023-03-24T16:10:35;10.69;64.76
67192;HTU21D;54120;53.504;49.426;2023-03-24T16:13:19;10.71;64.76
67192;HTU21D;54120;53.504;49.426;2023-03-24T16:15:51;10.67;64.78
67192;HTU21D;54120;53.504;49.426;2023-03-24T16:18:24;10.57;65.50
67192;HTU21D;54120;53.504;49.426;2023-03-24T16:20:51;10.54;65.82
67192;HTU21D;54120;53.504;49.426;2023-03-24T16:23:18;10.58;65.67
67192;HTU21D;54120;53.504;49.426;2023-03-24T16:25:44;10.53;66.12
67192;HTU21D;54120;53.504;49.426;2023-03-24T16:28:18;10.53;66.11
67192;HTU21D;54120;53.504;49.426;2023-03-24T16:30:48;10.57;66.23
67192;HTU21D;54120;53.504;49.426;2023-03-24T16:33:17;10.67;66.17
67192;HTU21D;54120;53.504;49.426;2023-03-24T16:35:45;10.67;66.23
67192;HTU21D;54120;53.504;49.426;2023-03-24T16:38:12;10.74;66.07
67192;HTU21D;54120;53.504;49.426;2023-03-24T16:40:42;10.82;65.98
67192;HTU21D;54120;53.504;49.426;2023-03-24T16:43:10;10.87;65.95
67192;HTU21D;54120;53.504;49.426;2023-03-24T16:45:36;10.94;65.66
67192;HTU21D;54120;53.504;49.426;2023-03-24T16:48:03;10.90;65.81
67192;HTU21D;54120;53.504;49.426;2023-03-24T16:50:33;10.98;65.63
67192;HTU21D;54120;53.504;49.426;2023-03-24T16:53:01;11.07;65.51
67192;HTU21D;54120;53.504;49.426;2023-03-24T16:55:30;11.11;65.38
67192;HTU21D;54120;53.504;49.426;2023-03-24T16:57:57;11.18;65.31
67192;HTU21D;54120;53.504;49.426;2023-03-24T17:00:24;11.15;65.49
67192;HTU21D;54120;53.504;49.426;2023-03-24T17:02:50;11.19;65.24
67192;HTU21D;54120;53.504;49.426;2023-03-24T17:05:33;11.19;65.04
67192;HTU21D;54120;53.504;49.426;2023-03-24T17:08:02;11.23;64.96
67192;HTU21D;54120;53.504;49.426;2023-03-24T17:10:28;11.24;64.98
67192;HTU21D;54120;53.504;49.426;2023-03-24T17:12:55;11.29;64.63
67192;HTU21D;54120;53.504;49.426;2023-03-24T17:15:25;11.30;64.61
67192;HTU21D;54120;53.504;49.426;2023-03-24T17:17:53;11.25;65.01
67192;HTU21D;54120;53.504;49.426;2023-03-24T17:20:20;11.26;64.87
67192;HTU21D;54120;53.504;49.426;2023-03-24T17:22:49;11.27;64.76
67192;HTU21D;54120;53.504;49.426;2023-03-24T17:25:20;11.31;64.72
67192;HTU21D;54120;53.504;49.426;2023-03-24T17:27:49;11.28;64.92
67192;HTU21D;54120;53.504;49.426;2023-03-24T17:30:18;11.28;64.90
67192;HTU21D;54120;53.504;49.426;2023-03-24T17:32:45;11.26;64.93
67192;HTU21D;54120;53.504;49.426;2023-03-24T17:35:13;11.26;64.98
67192;HTU21D;54120;53.504;49.426;2023-03-24T17:37:40;11.28;64.93
67192;HTU21D;54120;53.504;49.426;2023-03-24T17:40:08;11.24;65.00
67192;HTU21D;54120;53.504;49.426;2023-03-24T17:42:37;11.24;65.09
67192;HTU21D;54120;53.504;49.426;2023-03-24T17:45:05;11.23;65.33
67192;HTU21D;54120;53.504;49.426;2023-03-24T17:47:33;11.17;65.42
67192;HTU21D;54120;53.504;49.426;2023-03-24T17:49:59;11.18;65.29
67192;HTU21D;54120;53.504;49.426;2023-03-24T17:52:26;11.23;65.16
67192;HTU21D;54120;53.504;49.426;2023-03-24T17:54:52;11.25;65.11
67192;HTU21D;54120;53.504;49.426;2023-03-24T17:57:18;11.26;65.27
67192;HTU21D;54120;53.504;49.426;2023-03-24T17:59:45;11.25;65.21
67192;HTU21D;54120;53.504;49.426;2023-03-24T18:02:12;11.24;65.27
67192;HTU21D;54120;53.504;49.426;2023-03-24T18:04:38;11.20;65.46
67192;HTU21D;54120;53.504;49.426;2023-03-24T18:07:04;11.16;65.62
67192;HTU21D;54120;53.504;49.426;2023-03-24T18:09:31;11.10;66.02
67192;HTU21D;54120;53.504;49.426;2023-03-24T18:11:58;11.10;66.17
67192;HTU21D;54120;53.504;49.426;2023-03-24T18:14:24;11.11;66.07
67192;HTU21D;54120;53.504;49.426;2023-03-24T18:16:51;11.07;66.53
67192;HTU21D;54120;53.504;49.426;2023-03-24T18:19:17;11.01;66.56
67192;HTU21D;54120;53.504;49.426;2023-03-24T18:21:43;10.97;66.59
67192;HTU21D;54120;53.504;49.426;2023-03-24T18:24:10;10.90;67.01
67192;HTU21D;54120;53.504;49.426;2023-03-24T18:26:37;10.88;67.10